Time;durP1;ratioP1;P1;durP2;ratioP2;P2;SDS_P1;SDS_P2;PMS_P1;PMS_P2;Temp;Humidity;BMP_temperature;BMP_pressure;BME280_temperature;BME280_humidity;BME280_pressure;Samples;Min_cycle;Max_cycle;Signal;HPM_P1;HPM_P2
2023/05/19 00:01:09;;;;;;;22.10;4.38;;;;;;;;;;6207723;23;20021;-50
2023/05/19 00:03:39;;;;;;;22.23;5.22;;;;;;;;;;6206408;23;20021;-51
2023/05/19 00:06:13;;;;;;;19.23;4.97;;;;;;;;;;6205962;23;20327;-53
2023/05/19 00:08:41;;;;;;;14.57;4.20;;;;;;;;;;6205771;23;20060;-54
2023/05/19 00:11:15;;;;;;;15.82;4.68;;;;;;;;;;6207935;23;20514;-50
2023/05/19 00:13:44;;;;;;;17.25;3.88;;;;;;;;;;6207800;23;20328;-49
2023/05/19 00:16:25;;;;;;;19.08;4.60;;;;;;;;;;6205592;23;20087;-52
2023/05/19 00:18:53;;;;;;;12.50;4.30;;;;;;;;;;6207367;23;20486;-50
2023/05/19 00:21:27;;;;;;;20.92;5.85;;;;;;;;;;6208139;23;20363;-51
2023/05/19 00:23:55;;;;;;;16.63;5.30;;;;;;;;;;6203243;23;20029;-48
2023/05/19 00:26:22;;;;;;;21.73;5.60;;;;;;;;;;6207503;23;20027;-50
2023/05/19 00:28:56;;;;;;;25.23;5.03;;;;;;;;;;6207465;23;20028;-45
2023/05/19 00:31:23;;;;;;;23.15;6.63;;;;;;;;;;6207008;23;20493;-46
2023/05/19 00:33:57;;;;;;;24.13;5.32;;;;;;;;;;6206381;23;20027;-48
2023/05/19 00:36:24;;;;;;;17.98;5.18;;;;;;;;;;6208027;23;20029;-47
2023/05/19 00:38:58;;;;;;;17.60;4.97;;;;;;;;;;6205633;23;20075;-49
2023/05/19 00:41:25;;;;;;;21.15;5.70;;;;;;;;;;6207168;23;20506;-46
2023/05/19 00:43:59;;;;;;;15.48;5.20;;;;;;;;;;6208095;23;20027;-62
2023/05/19 00:46:26;;;;;;;20.48;4.68;;;;;;;;;;6208537;23;20075;-62
2023/05/19 00:48:53;;;;;;;16.75;4.22;;;;;;;;;;6207777;23;20028;-62
2023/05/19 00:51:28;;;;;;;16.88;4.93;;;;;;;;;;6205906;23;20079;-62
2023/05/19 00:53:55;;;;;;;17.70;5.00;;;;;;;;;;6206671;23;20029;-48
2023/05/19 00:56:22;;;;;;;16.55;5.57;;;;;;;;;;6207979;23;20405;-47
2023/05/19 00:58:56;;;;;;;22.90;6.07;;;;;;;;;;6207782;23;20021;-56
2023/05/19 01:01:31;;;;;;;18.98;5.28;;;;;;;;;;6206691;23;20451;-56
2023/05/19 01:03:58;;;;;;;17.05;4.97;;;;;;;;;;6206512;23;20508;-56
2023/05/19 01:06:32;;;;;;;19.38;5.82;;;;;;;;;;6206980;23;20020;-53
2023/05/19 01:08:59;;;;;;;23.27;6.05;;;;;;;;;;6207907;23;20082;-57
2023/05/19 01:11:33;;;;;;;17.97;5.13;;;;;;;;;;6209027;23;20079;-57
2023/05/19 01:14:07;;;;;;;18.20;6.07;;;;;;;;;;6209642;23;20024;-59
2023/05/19 01:16:47;;;;;;;12.70;4.72;;;;;;;;;;6149253;23;20467;-59
2023/05/19 01:19:24;;;;;;;24.85;5.53;;;;;;;;;;6148754;23;20037;-58
2023/05/19 01:22:11;;;;;;;25.60;6.35;;;;;;;;;;6149777;23;20226;-57
2023/05/19 01:24:48;;;;;;;18.15;5.60;;;;;;;;;;6149849;23;20021;-58
2023/05/19 01:27:31;;;;;;;18.02;5.40;;;;;;;;;;6150458;23;20068;-45
2023/05/19 01:30:25;;;;;;;22.23;6.18;;;;;;;;;;6148612;23;20029;-44
2023/05/19 01:32:53;;;;;;;19.05;5.35;;;;;;;;;;6148388;23;20080;-45
2023/05/19 01:35:28;;;;;;;18.52;5.82;;;;;;;;;;6148624;23;20096;-44
2023/05/19 01:37:56;;;;;;;20.05;6.13;;;;;;;;;;6149173;23;20029;-44
2023/05/19 01:40:30;;;;;;;17.73;6.28;;;;;;;;;;6149077;23;20072;-44
2023/05/19 01:42:59;;;;;;;14.93;5.65;;;;;;;;;;6147575;23;20831;-45
2023/05/19 01:45:33;;;;;;;20.48;5.35;;;;;;;;;;6150050;23;20025;-44
2023/05/19 01:48:02;;;;;;;21.48;5.60;;;;;;;;;;6149147;23;20100;-47
2023/05/19 01:50:30;;;;;;;18.08;5.55;;;;;;;;;;6149710;23;20025;-44
2023/05/19 01:53:04;;;;;;;16.42;5.32;;;;;;;;;;6148257;23;20029;-61
2023/05/19 01:55:31;;;;;;;33.38;5.40;;;;;;;;;;6150328;23;20044;-48
2023/05/19 01:58:10;;;;;;;13.13;5.03;;;;;;;;;;6148567;23;20029;-46
2023/05/19 02:00:53;;;;;;;15.75;5.35;;;;;;;;;;6150305;23;20076;-45
2023/05/19 02:03:50;;;;;;;13.65;5.05;;;;;;;;;;6148153;23;20037;-48
2023/05/19 02:06:30;;;;;;;15.15;5.32;;;;;;;;;;6146541;23;20745;-47
2023/05/19 02:09:23;;;;;;;12.68;5.45;;;;;;;;;;6148253;23;20026;-46
2023/05/19 02:12:25;;;;;;;18.55;5.65;;;;;;;;;;6149927;23;20025;-59
2023/05/19 02:15:11;;;;;;;18.48;5.60;;;;;;;;;;6126085;23;20029;-58
2023/05/19 02:17:47;;;;;;;19.50;5.50;;;;;;;;;;6177119;23;20406;-58
2023/05/19 02:20:23;;;;;;;15.57;5.60;;;;;;;;;;6179053;23;20025;-59
2023/05/19 02:22:50;;;;;;;21.38;5.30;;;;;;;;;;6179364;23;20159;-55
2023/05/19 02:25:18;;;;;;;13.82;5.00;;;;;;;;;;6178110;23;20017;-50
2023/05/19 02:27:52;;;;;;;13.20;4.97;;;;;;;;;;6178040;23;20075;-50
2023/05/19 02:30:19;;;;;;;13.88;5.25;;;;;;;;;;6179478;23;20025;-50
2023/05/19 02:32:54;;;;;;;12.75;4.97;;;;;;;;;;6177842;23;20538;-51
2023/05/19 02:35:21;;;;;;;16.92;4.72;;;;;;;;;;6179254;23;20680;-51
2023/05/19 02:37:48;;;;;;;16.92;5.80;;;;;;;;;;6178615;23;20569;-59
2023/05/19 02:40:22;;;;;;;18.98;5.68;;;;;;;;;;6178748;23;20075;-58
2023/05/19 02:42:49;;;;;;;19.52;6.47;;;;;;;;;;6179064;23;20032;-59
2023/05/19 02:45:23;;;;;;;12.68;5.13;;;;;;;;;;6178685;23;20025;-60
2023/05/19 02:47:50;;;;;;;17.80;6.60;;;;;;;;;;6177968;23;20478;-59
2023/05/19 02:50:24;;;;;;;15.27;5.47;;;;;;;;;;6179098;23;20100;-49
2023/05/19 02:52:52;;;;;;;20.40;6.55;;;;;;;;;;6177730;23;20021;-46
2023/05/19 02:55:19;;;;;;;16.42;5.95;;;;;;;;;;6178105;23;20482;-48
2023/05/19 02:57:53;;;;;;;17.67;6.10;;;;;;;;;;6177779;23;20021;-48
2023/05/19 03:00:20;;;;;;;19.10;5.93;;;;;;;;;;6178446;23;20529;-46
2023/05/19 03:02:54;;;;;;;13.80;6.18;;;;;;;;;;6176212;23;20029;-48
2023/05/19 03:05:21;;;;;;;21.00;6.22;;;;;;;;;;6179784;23;20096;-46
2023/05/19 03:07:49;;;;;;;19.55;6.07;;;;;;;;;;6177306;23;20490;-62
2023/05/19 03:10:23;;;;;;;18.98;5.97;;;;;;;;;;6178754;23;20029;-62
2023/05/19 03:12:50;;;;;;;21.90;7.05;;;;;;;;;;6177812;23;20021;-61
2023/05/19 03:15:31;;;;;;;19.88;7.03;;;;;;;;;;6189936;23;20028;-62
2023/05/19 03:18:05;;;;;;;25.02;6.45;;;;;;;;;;6207486;23;20035;-56
2023/05/19 03:20:41;;;;;;;15.65;7.18;;;;;;;;;;6208966;23;20035;-50
2023/05/19 03:23:08;;;;;;;22.77;7.13;;;;;;;;;;6208741;23;20028;-47
2023/05/19 03:25:35;;;;;;;19.60;7.90;;;;;;;;;;6207657;23;20083;-47
2023/05/19 03:28:09;;;;;;;12.90;6.32;;;;;;;;;;6205925;23;20466;-48
2023/05/19 03:30:36;;;;;;;16.70;6.32;;;;;;;;;;6207311;23;20032;-48
2023/05/19 03:33:10;;;;;;;21.45;7.38;;;;;;;;;;6208688;23;20020;-47
2023/05/19 03:35:37;;;;;;;;;;;;;;;;;;6208558;23;20517;-56
2023/05/19 03:38:11;;;;;;;13.98;6.65;;;;;;;;;;6206877;23;19943;-57
2023/05/19 03:40:40;;;;;;;16.20;6.90;;;;;;;;;;6208169;23;20103;-52
2023/05/19 03:43:15;;;;;;;19.92;7.93;;;;;;;;;;6207530;23;20043;-53
2023/05/19 03:45:42;;;;;;;23.33;7.60;;;;;;;;;;6208393;23;20374;-59
2023/05/19 03:48:09;;;;;;;18.17;8.35;;;;;;;;;;6206226;23;20485;-53
2023/05/19 03:50:47;;;;;;;13.70;5.20;;;;;;;;;;6208120;23;20108;-55
2023/05/19 03:53:21;;;;;;;14.45;6.97;;;;;;;;;;6207948;23;20467;-52
2023/05/19 03:55:55;;;;;;;20.88;7.50;;;;;;;;;;6207716;23;20075;-53
2023/05/19 03:58:22;;;;;;;18.40;7.53;;;;;;;;;;6208715;23;20029;-52
2023/05/19 04:00:56;;;;;;;15.07;6.55;;;;;;;;;;6208582;23;20024;-51
2023/05/19 04:03:24;;;;;;;13.40;5.55;;;;;;;;;;6208218;23;20024;-47
2023/05/19 04:05:52;;;;;;;7.78;4.18;;;;;;;;;;6207826;23;20429;-46
2023/05/19 04:08:26;;;;;;;9.48;4.60;;;;;;;;;;6208616;23;20024;-47
2023/05/19 04:10:53;;;;;;;9.85;3.70;;;;;;;;;;6180735;23;20024;-48
2023/05/19 04:13:27;;;;;;;9.93;3.47;;;;;;;;;;6207453;23;20024;-48
2023/05/19 04:16:01;;;;;;;7.88;3.78;;;;;;;;;;6206683;23;20029;-55
2023/05/19 04:18:35;;;;;;;9.05;3.40;;;;;;;;;;6207047;23;20040;-61
2023/05/19 04:21:02;;;;;;;8.30;3.70;;;;;;;;;;6208203;23;20055;-62
2023/05/19 04:23:30;;;;;;;7.20;3.92;;;;;;;;;;6208743;23;20130;-62
2023/05/19 04:26:05;;;;;;;9.13;3.45;;;;;;;;;;6206615;23;20028;-63
2023/05/19 04:28:35;;;;;;;10.32;4.03;;;;;;;;;;6206951;23;20422;-61
2023/05/19 04:31:09;;;;;;;13.75;4.18;;;;;;;;;;6206877;23;20389;-62
2023/05/19 04:33:37;;;;;;;6.82;3.20;;;;;;;;;;6206320;23;20028;-53
2023/05/19 04:36:07;;;;;;;7.88;3.42;;;;;;;;;;6208619;23;20176;-54
2023/05/19 04:38:41;;;;;;;9.88;3.63;;;;;;;;;;6207348;23;20035;-53
2023/05/19 04:41:09;;;;;;;11.48;3.80;;;;;;;;;;6206580;23;20388;-54
2023/05/19 04:43:43;;;;;;;7.45;3.35;;;;;;;;;;6207238;23;20756;-63
2023/05/19 04:46:11;;;;;;;8.23;3.63;;;;;;;;;;6209475;23;20123;-52
2023/05/19 04:48:45;;;;;;;6.40;3.10;;;;;;;;;;6209331;23;20032;-49
2023/05/19 04:51:13;;;;;;;8.27;3.35;;;;;;;;;;6209243;23;20028;-52
2023/05/19 04:53:41;;;;;;;7.38;3.17;;;;;;;;;;6210447;23;20025;-53
2023/05/19 04:56:15;;;;;;;8.57;3.38;;;;;;;;;;6209127;23;20872;-51
2023/05/19 04:58:49;;;;;;;11.18;3.83;;;;;;;;;;6207886;23;20033;-51
2023/05/19 05:01:17;;;;;;;;;;;;;;;;;;6182992;23;20023;-54
2023/05/19 05:03:44;;;;;;;6.18;3.10;;;;;;;;;;6209190;23;20245;-53
2023/05/19 05:06:18;;;;;;;10.55;3.08;;;;;;;;;;6210078;23;20099;-55
2023/05/19 05:08:45;;;;;;;8.23;3.70;;;;;;;;;;6209780;23;20328;-56
2023/05/19 05:11:13;;;;;;;5.63;2.90;;;;;;;;;;6207478;23;20343;-52
2023/05/19 05:13:47;;;;;;;8.20;3.22;;;;;;;;;;6206803;23;20021;-62
2023/05/19 05:16:14;;;;;;;;;;;;;;;;;;6207465;23;20580;-62
2023/05/19 05:18:56;;;;;;;8.18;3.70;;;;;;;;;;6208019;23;20270;-62
2023/05/19 05:21:23;;;;;;;9.45;3.38;;;;;;;;;;6209558;23;20032;-63
2023/05/19 05:23:57;;;;;;;8.68;3.08;;;;;;;;;;6208245;23;20486;-63
2023/05/19 05:26:27;;;;;;;10.13;3.30;;;;;;;;;;6209729;23;20083;-62
2023/05/19 05:28:54;;;;;;;4.80;2.78;;;;;;;;;;6207848;23;20025;-51
2023/05/19 05:31:28;;;;;;;6.85;3.13;;;;;;;;;;6206803;23;20533;-51
2023/05/19 05:33:55;;;;;;;9.68;3.20;;;;;;;;;;6207707;23;20336;-56
2023/05/19 05:36:30;;;;;;;8.75;3.08;;;;;;;;;;6208276;23;20036;-53
2023/05/19 05:38:58;;;;;;;9.40;3.40;;;;;;;;;;6208599;23;20074;-63
2023/05/19 05:41:26;;;;;;;13.30;3.88;;;;;;;;;;6207698;23;20463;-49
2023/05/19 05:44:03;;;;;;;8.98;3.58;;;;;;;;;;6207566;23;20028;-52
2023/05/19 05:46:31;;;;;;;5.68;2.97;;;;;;;;;;6207514;23;20076;-53
2023/05/19 05:49:05;;;;;;;11.27;3.55;;;;;;;;;;6204779;23;20028;-55
2023/05/19 05:51:32;;;;;;;7.53;3.80;;;;;;;;;;6209006;23;20025;-52
2023/05/19 05:54:01;;;;;;;17.85;4.90;;;;;;;;;;6208978;23;20025;-54
2023/05/19 05:56:36;;;;;;;14.30;5.55;;;;;;;;;;6207648;23;20390;-54
2023/05/19 05:59:04;;;;;;;19.70;5.80;;;;;;;;;;6207064;23;20079;-54
2023/05/19 06:01:38;;;;;;;21.70;5.15;;;;;;;;;;6207426;23;20025;-62
2023/05/19 06:04:05;;;;;;;17.38;5.82;;;;;;;;;;6204351;23;20028;-61
2023/05/19 06:06:34;;;;;;;16.33;4.72;;;;;;;;;;6208320;23;20020;-61
2023/05/19 06:09:08;;;;;;;15.88;5.40;;;;;;;;;;6206223;23;20083;-61
2023/05/19 06:11:35;;;;;;;16.40;4.45;;;;;;;;;;6210145;23;20024;-61
2023/05/19 06:14:03;;;;;;;18.70;5.68;;;;;;;;;;6208408;23;20020;-61
2023/05/19 06:16:43;;;;;;;16.17;4.57;;;;;;;;;;6207382;23;20024;-56
2023/05/19 06:19:10;;;;;;;14.65;4.40;;;;;;;;;;6207292;23;20055;-62
2023/05/19 06:21:44;;;;;;;17.48;5.10;;;;;;;;;;6208608;23;20024;-62
2023/05/19 06:24:11;;;;;;;13.75;4.30;;;;;;;;;;6207132;23;20867;-62
2023/05/19 06:26:39;;;;;;;13.15;3.95;;;;;;;;;;6205743;23;20074;-63
2023/05/19 06:29:12;;;;;;;10.50;4.05;;;;;;;;;;6205393;23;20805;-62
2023/05/19 06:31:39;;;;;;;12.88;4.15;;;;;;;;;;6206922;23;20024;-63
2023/05/19 06:34:16;;;;;;;14.18;4.90;;;;;;;;;;6205456;23;20024;-53
2023/05/19 06:36:50;;;;;;;10.15;4.22;;;;;;;;;;6182581;23;20402;-62
2023/05/19 06:39:17;;;;;;;11.00;4.45;;;;;;;;;;6180760;23;20814;-55
2023/05/19 06:41:51;;;;;;;17.52;4.68;;;;;;;;;;6184139;23;20420;-55
2023/05/19 06:44:18;;;;;;;9.90;3.78;;;;;;;;;;6207187;23;20633;-54
2023/05/19 06:46:47;;;;;;;13.90;4.70;;;;;;;;;;6207690;23;20346;-53
2023/05/19 06:49:21;;;;;;;10.85;3.95;;;;;;;;;;6207360;23;20032;-53
2023/05/19 06:51:49;;;;;;;13.23;4.03;;;;;;;;;;6180761;23;20071;-52
2023/05/19 06:54:30;;;;;;;14.63;4.00;;;;;;;;;;6205259;23;20107;-50
2023/05/19 06:56:57;;;;;;;15.40;4.03;;;;;;;;;;6205655;23;20070;-64
2023/05/19 06:59:31;;;;;;;17.25;4.68;;;;;;;;;;6205666;23;20039;-63
2023/05/19 07:02:05;;;;;;;10.77;4.25;;;;;;;;;;6204795;23;20343;-63
2023/05/19 07:04:39;;;;;;;11.98;4.43;;;;;;;;;;6208687;23;20099;-63
2023/05/19 07:07:13;;;;;;;18.48;4.65;;;;;;;;;;6207541;23;20541;-63
2023/05/19 07:09:40;;;;;;;13.20;4.70;;;;;;;;;;6207763;23;20063;-63
2023/05/19 07:12:14;;;;;;;10.60;4.93;;;;;;;;;;6207505;23;20116;-50
2023/05/19 07:14:41;;;;;;;11.32;5.40;;;;;;;;;;6208607;23;20102;-50
2023/05/19 07:17:15;;;;;;;13.15;5.57;;;;;;;;;;6205549;23;20079;-49
2023/05/19 07:19:49;;;;;;;11.77;4.63;;;;;;;;;;6207014;23;20024;-48
2023/05/19 07:22:16;;;;;;;16.23;4.47;;;;;;;;;;6207733;23;20086;-48
2023/05/19 07:24:50;;;;;;;12.30;4.10;;;;;;;;;;6205475;23;20209;-46
2023/05/19 07:27:17;;;;;;;10.90;4.63;;;;;;;;;;6207490;23;20020;-46
2023/05/19 07:29:51;;;;;;;12.20;4.72;;;;;;;;;;6208225;23;20021;-63
2023/05/19 07:32:18;;;;;;;11.68;3.70;;;;;;;;;;6207764;23;20537;-48
2023/05/19 07:34:46;;;;;;;12.43;4.03;;;;;;;;;;6209027;23;20028;-47
2023/05/19 07:37:20;;;;;;;10.00;3.33;;;;;;;;;;6205087;23;20016;-51
2023/05/19 07:39:47;;;;;;;11.30;4.13;;;;;;;;;;6207931;23;20025;-50
2023/05/19 07:42:21;;;;;;;9.50;3.42;;;;;;;;;;6207045;23;20470;-48
2023/05/19 07:44:48;;;;;;;13.25;3.65;;;;;;;;;;6208164;23;20036;-47
2023/05/19 07:47:15;;;;;;;8.93;3.83;;;;;;;;;;6207566;23;20020;-56
2023/05/19 07:49:49;;;;;;;14.75;3.40;;;;;;;;;;6207810;23;20025;-63
2023/05/19 07:52:18;;;;;;;13.15;4.10;;;;;;;;;;6207659;23;20024;-57
2023/05/19 07:54:52;;;;;;;11.00;3.10;;;;;;;;;;6205946;23;20403;-54
2023/05/19 07:57:19;;;;;;;8.13;3.30;;;;;;;;;;6208286;23;20031;-52
2023/05/19 07:59:46;;;;;;;8.57;3.17;;;;;;;;;;6208759;23;20042;-55
2023/05/19 08:02:20;;;;;;;6.72;2.95;;;;;;;;;;6207642;23;20028;-55
2023/05/19 08:04:48;;;;;;;7.72;3.08;;;;;;;;;;6205971;23;20112;-53
2023/05/19 08:07:22;;;;;;;9.23;3.10;;;;;;;;;;6207374;23;20020;-55
2023/05/19 08:09:50;;;;;;;7.93;3.30;;;;;;;;;;6206706;23;20024;-56
2023/05/19 08:12:17;;;;;;;11.18;3.92;;;;;;;;;;6208770;23;20028;-54
2023/05/19 08:14:58;;;;;;;7.20;3.20;;;;;;;;;;6206372;23;20548;-57
2023/05/19 08:17:34;;;;;;;9.57;3.40;;;;;;;;;;6176398;23;20029;-55
2023/05/19 08:20:09;;;;;;;10.30;3.00;;;;;;;;;;6176931;23;20056;-53
2023/05/19 08:22:36;;;;;;;8.98;3.00;;;;;;;;;;6178889;23;20414;-54
2023/05/19 08:25:04;;;;;;;7.78;3.00;;;;;;;;;;6179121;23;20025;-55
2023/05/19 08:27:38;;;;;;;10.98;3.55;;;;;;;;;;6179616;23;20025;-54
2023/05/19 08:30:05;;;;;;;9.75;3.47;;;;;;;;;;6179129;23;20056;-48
2023/05/19 08:32:39;;;;;;;7.95;3.75;;;;;;;;;;6178811;23;20043;-49
2023/05/19 08:35:07;;;;;;;7.47;2.88;;;;;;;;;;6179286;23;20044;-47
2023/05/19 08:37:36;;;;;;;6.28;2.85;;;;;;;;;;6179667;23;20021;-50
2023/05/19 08:40:15;;;;;;;9.30;3.10;;;;;;;;;;6178451;23;20024;-51
2023/05/19 08:42:43;;;;;;;11.63;3.75;;;;;;;;;;6179278;23;20028;-64
2023/05/19 08:45:16;;;;;;;9.48;3.20;;;;;;;;;;6201740;23;20029;-58
2023/05/19 08:47:48;;;;;;;12.20;3.45;;;;;;;;;;6179442;23;20025;-53
2023/05/19 08:50:23;;;;;;;13.18;3.72;;;;;;;;;;6179478;23;20029;-56
2023/05/19 08:53:12;;;;;;;12.20;3.70;;;;;;;;;;6176463;23;20069;-54
2023/05/19 08:56:01;;;;;;;8.80;3.20;;;;;;;;;;6179674;23;20088;-53
2023/05/19 08:58:35;;;;;;;10.50;3.72;;;;;;;;;;6179405;23;20371;-53
2023/05/19 09:01:03;;;;;;;;;;;;;;;;;;6178954;23;20496;-63
2023/05/19 09:03:39;;;;;;;9.32;3.33;;;;;;;;;;6177397;23;19958;-54
2023/05/19 09:06:07;;;;;;;12.10;4.15;;;;;;;;;;6176614;23;20025;-67
2023/05/19 09:08:41;;;;;;;11.68;3.05;;;;;;;;;;6178895;23;20033;-66
2023/05/19 09:11:08;;;;;;;;;;;;;;;;;;6179564;23;20328;-67
2023/05/19 09:13:42;;;;;;;9.50;4.10;;;;;;;;;;6178297;23;19928;-66
2023/05/19 09:16:17;;;;;;;9.38;3.90;;;;;;;;;;6187271;23;20052;-67
2023/05/19 09:18:55;;;;;;;9.30;3.80;;;;;;;;;;6206689;23;20775;-67
2023/05/19 09:21:29;;;;;;;7.65;3.35;;;;;;;;;;6209101;23;20067;-56
2023/05/19 09:24:07;;;;;;;7.75;3.60;;;;;;;;;;6206624;23;20031;-58
2023/05/19 09:26:37;;;;;;;8.07;2.97;;;;;;;;;;6206623;23;20031;-56
2023/05/19 09:29:18;;;;;;;9.77;3.75;;;;;;;;;;6208882;23;20369;-57
2023/05/19 09:31:52;;;;;;;6.65;3.38;;;;;;;;;;6208164;23;20488;-54
2023/05/19 09:34:23;;;;;;;15.02;3.75;;;;;;;;;;6205845;23;20030;-56
2023/05/19 09:36:52;;;;;;;8.70;3.70;;;;;;;;;;6207636;23;20509;-59
2023/05/19 09:39:27;;;;;;;8.70;3.50;;;;;;;;;;6205851;23;20753;-56
2023/05/19 09:41:57;;;;;;;11.52;3.95;;;;;;;;;;6180077;23;20020;-48
2023/05/19 09:44:31;;;;;;;16.73;3.88;;;;;;;;;;6206568;23;20028;-50
2023/05/19 09:47:05;;;;;;;7.63;3.35;;;;;;;;;;6209302;23;20043;-51
2023/05/19 09:49:45;;;;;;;7.50;3.13;;;;;;;;;;6208366;23;20047;-52
2023/05/19 09:52:20;;;;;;;8.52;3.10;;;;;;;;;;6208564;23;20020;-51
2023/05/19 09:54:54;;;;;;;15.25;3.90;;;;;;;;;;6208195;23;20025;-52
2023/05/19 09:57:33;;;;;;;11.18;3.10;;;;;;;;;;6207152;23;20028;-62
2023/05/19 10:00:00;;;;;;;8.02;2.97;;;;;;;;;;6207343;23;20024;-57
2023/05/19 10:02:28;;;;;;;8.40;3.65;;;;;;;;;;6209068;23;20767;-57
2023/05/19 10:05:02;;;;;;;6.53;3.45;;;;;;;;;;6209566;23;20039;-57
2023/05/19 10:07:29;;;;;;;10.68;3.75;;;;;;;;;;6208096;23;20048;-56
2023/05/19 10:10:04;;;;;;;9.93;3.45;;;;;;;;;;6207477;23;20028;-55
2023/05/19 10:12:32;;;;;;;7.78;3.25;;;;;;;;;;6208957;23;20044;-58
2023/05/19 10:14:59;;;;;;;5.93;3.25;;;;;;;;;;6207869;23;20025;-54
2023/05/19 10:17:40;;;;;;;19.13;3.78;;;;;;;;;;6208105;23;20029;-51
2023/05/19 10:20:17;;;;;;;10.23;3.75;;;;;;;;;;6208151;23;20025;-48
2023/05/19 10:22:51;;;;;;;12.80;3.75;;;;;;;;;;6208898;23;20099;-50
2023/05/19 10:25:18;;;;;;;8.20;3.60;;;;;;;;;;6208194;23;20020;-50
2023/05/19 10:28:05;;;;;;;8.95;3.38;;;;;;;;;;6207925;23;20405;-51
2023/05/19 10:30:37;;;;;;;7.72;3.13;;;;;;;;;;6209245;23;20033;-51
2023/05/19 10:33:16;;;;;;;8.63;3.42;;;;;;;;;;6207862;23;20358;-51
2023/05/19 10:36:07;;;;;;;6.13;3.63;;;;;;;;;;6207305;23;20067;-58
2023/05/19 10:38:55;;;;;;;8.02;3.38;;;;;;;;;;6207431;23;20226;-54
2023/05/19 10:41:49;;;;;;;9.85;3.38;;;;;;;;;;6208523;23;20082;-56
2023/05/19 10:44:26;;;;;;;6.43;3.20;;;;;;;;;;6179728;23;20070;-58
2023/05/19 10:46:54;;;;;;;7.90;3.70;;;;;;;;;;6208373;23;20026;-57
2023/05/19 10:49:23;;;;;;;6.75;3.38;;;;;;;;;;6207754;23;20020;-56
2023/05/19 10:51:57;;;;;;;12.35;3.55;;;;;;;;;;6207005;23;20525;-54
2023/05/19 10:54:47;;;;;;;8.85;3.45;;;;;;;;;;6208481;23;20573;-65
2023/05/19 10:57:30;;;;;;;8.32;3.60;;;;;;;;;;6209087;23;20324;-66
2023/05/19 10:59:59;;;;;;;7.47;3.28;;;;;;;;;;6207049;23;20044;-65
2023/05/19 11:02:41;;;;;;;5.97;3.83;;;;;;;;;;6208988;23;20025;-65
2023/05/19 11:05:17;;;;;;;10.77;4.22;;;;;;;;;;6208104;23;20032;-65
2023/05/19 11:08:07;;;;;;;7.18;3.42;;;;;;;;;;6209348;23;20032;-65
2023/05/19 11:10:34;;;;;;;8.20;3.85;;;;;;;;;;6207994;23;20747;-52
2023/05/19 11:13:18;;;;;;;6.88;3.40;;;;;;;;;;6206244;23;20082;-51
2023/05/19 11:15:52;;;;;;;6.13;3.30;;;;;;;;;;6207172;23;20402;-51
2023/05/19 11:18:33;;;;;;;8.35;3.35;;;;;;;;;;6208870;23;20078;-50
2023/05/19 11:21:01;;;;;;;8.57;3.92;;;;;;;;;;6206930;23;20024;-50
2023/05/19 11:23:40;;;;;;;7.57;3.33;;;;;;;;;;6208185;23;20048;-49
2023/05/19 11:26:08;;;;;;;7.30;3.20;;;;;;;;;;6207813;23;20020;-50
2023/05/19 11:28:41;;;;;;;6.88;3.70;;;;;;;;;;6206586;23;20461;-53
2023/05/19 11:31:10;;;;;;;5.93;3.40;;;;;;;;;;6181022;23;20024;-56
2023/05/19 11:33:44;;;;;;;6.07;3.50;;;;;;;;;;6207952;23;20568;-55
2023/05/19 11:36:12;;;;;;;5.93;3.20;;;;;;;;;;6206083;23;20024;-60
2023/05/19 11:38:39;;;;;;;14.63;3.78;;;;;;;;;;6208444;23;20070;-55
2023/05/19 11:41:15;;;;;;;8.20;3.15;;;;;;;;;;6206951;23;20082;-55
2023/05/19 11:43:44;;;;;;;6.88;3.55;;;;;;;;;;6206555;23;20017;-56
2023/05/19 11:46:18;;;;;;;8.73;4.10;;;;;;;;;;6207337;23;20028;-65
2023/05/19 11:48:46;;;;;;;;;;;;;;;;;;6208445;23;20032;-48
2023/05/19 11:51:13;;;;;;;7.38;3.10;;;;;;;;;;6205746;23;19962;-62
2023/05/19 11:53:48;;;;;;;9.05;3.80;;;;;;;;;;6207126;23;20474;-62
2023/05/19 11:56:15;;;;;;;5.65;3.70;;;;;;;;;;6206897;23;20038;-62
2023/05/19 11:58:43;;;;;;;11.48;3.58;;;;;;;;;;6205980;23;20059;-62
2023/05/19 12:01:16;;;;;;;6.55;3.30;;;;;;;;;;6207914;23;20030;-62
2023/05/19 12:03:43;;;;;;;9.73;3.70;;;;;;;;;;6205503;23;20078;-62
2023/05/19 12:06:32;;;;;;;8.52;3.28;;;;;;;;;;6206683;23;20458;-51
2023/05/19 12:09:06;;;;;;;9.07;3.45;;;;;;;;;;6207780;23;20021;-57
2023/05/19 12:11:40;;;;;;;8.07;3.63;;;;;;;;;;6206732;23;20087;-58
2023/05/19 12:14:09;;;;;;;7.95;3.75;;;;;;;;;;6205506;23;20021;-55
2023/05/19 12:16:36;;;;;;;7.90;3.47;;;;;;;;;;6206267;23;20024;-53
2023/05/19 12:19:10;;;;;;;9.95;3.63;;;;;;;;;;6206172;23;20020;-57
2023/05/19 12:21:38;;;;;;;8.60;3.97;;;;;;;;;;6180908;23;20070;-57
2023/05/19 12:24:12;;;;;;;6.95;3.15;;;;;;;;;;6205306;23;20474;-49
2023/05/19 12:26:39;;;;;;;;;;;;;;;;;;6207443;23;20328;-53
2023/05/19 12:29:06;;;;;;;9.75;3.50;;;;;;;;;;6207863;23;20334;-56
2023/05/19 12:31:40;;;;;;;7.63;3.60;;;;;;;;;;6204624;23;20024;-56
2023/05/19 12:34:08;;;;;;;;;;;;;;;;;;6206850;23;20056;-52
2023/05/19 12:36:35;;;;;;;9.35;3.90;;;;;;;;;;6206361;23;20330;-55
2023/05/19 12:39:08;;;;;;;7.30;3.58;;;;;;;;;;6207514;23;20024;-55
2023/05/19 12:41:36;;;;;;;7.95;3.42;;;;;;;;;;6207066;23;20738;-61
2023/05/19 12:44:13;;;;;;;11.52;3.47;;;;;;;;;;6205516;23;20063;-53
2023/05/19 12:46:46;;;;;;;5.13;3.45;;;;;;;;;;6206891;23;20389;-55
2023/05/19 12:49:13;;;;;;;10.38;3.88;;;;;;;;;;6205816;23;20079;-56
2023/05/19 12:51:53;;;;;;;12.50;3.95;;;;;;;;;;6207449;23;20079;-55
2023/05/19 12:54:21;;;;;;;7.80;3.67;;;;;;;;;;6205136;23;20350;-56
2023/05/19 12:56:57;;;;;;;7.80;3.90;;;;;;;;;;6203676;23;20488;-52
2023/05/19 12:59:25;;;;;;;7.28;3.55;;;;;;;;;;6206136;23;20082;-51
2023/05/19 13:02:04;;;;;;;6.93;3.53;;;;;;;;;;6204258;23;20039;-57
2023/05/19 13:04:31;;;;;;;;;;;;;;;;;;6207689;23;20037;-53
2023/05/19 13:06:59;;;;;;;7.15;3.50;;;;;;;;;;6208489;23;20316;-53
2023/05/19 13:09:34;;;;;;;7.28;3.33;;;;;;;;;;6207670;23;20126;-54
2023/05/19 13:12:01;;;;;;;7.88;3.50;;;;;;;;;;6208069;23;20028;-52
2023/05/19 13:14:36;;;;;;;5.07;3.20;;;;;;;;;;6209169;23;20078;-53
2023/05/19 13:17:10;;;;;;;11.30;3.35;;;;;;;;;;6206776;23;20588;-53
2023/05/19 13:19:51;;;;;;;5.90;3.17;;;;;;;;;;6209441;23;20095;-53
2023/05/19 13:22:19;;;;;;;8.05;3.72;;;;;;;;;;6207967;23;20020;-57
2023/05/19 13:24:52;;;;;;;5.22;3.00;;;;;;;;;;6209247;23;20067;-55
2023/05/19 13:27:19;;;;;;;6.55;3.90;;;;;;;;;;6208676;23;20024;-57
2023/05/19 13:29:46;;;;;;;13.25;3.80;;;;;;;;;;6207780;23;20032;-56
2023/05/19 13:32:20;;;;;;;7.78;3.45;;;;;;;;;;6207246;23;20024;-56
2023/05/19 13:34:47;;;;;;;6.40;3.70;;;;;;;;;;6208743;23;20094;-55
2023/05/19 13:37:21;;;;;;;10.48;3.67;;;;;;;;;;6209415;23;20083;-63
2023/05/19 13:39:48;;;;;;;;;;;;;;;;;;6209573;23;20099;-50
2023/05/19 13:42:16;;;;;;;6.85;3.40;;;;;;;;;;6206262;23;19973;-48
2023/05/19 13:44:54;;;;;;;7.30;3.90;;;;;;;;;;6207791;23;20391;-48
2023/05/19 13:47:25;;;;;;;7.70;3.80;;;;;;;;;;6209016;23;20020;-51
2023/05/19 13:49:58;;;;;;;7.80;3.80;;;;;;;;;;6207675;23;20074;-51
2023/05/19 13:52:26;;;;;;;7.43;3.83;;;;;;;;;;6208606;23;20033;-49
2023/05/19 13:54:56;;;;;;;7.10;3.60;;;;;;;;;;6209438;23;20023;-56
2023/05/19 13:57:30;;;;;;;7.18;3.58;;;;;;;;;;6207490;23;20024;-49
2023/05/19 13:59:57;;;;;;;11.32;3.65;;;;;;;;;;6208225;23;20067;-51
2023/05/19 14:02:29;;;;;;;7.18;3.20;;;;;;;;;;6209137;23;20103;-54
2023/05/19 14:05:03;;;;;;;7.25;3.92;;;;;;;;;;6206403;23;20024;-54
2023/05/19 14:07:33;;;;;;;;;;;;;;;;;;6209175;23;20025;-54
2023/05/19 14:10:07;;;;;;;7.10;3.60;;;;;;;;;;6206998;23;19977;-54
2023/05/19 14:12:35;;;;;;;;;;;;;;;;;;6208796;23;20025;-52
2023/05/19 14:15:18;;;;;;;8.95;3.92;;;;;;;;;;6205606;23;19990;-55
2023/05/19 14:17:59;;;;;;;7.18;3.70;;;;;;;;;;6206106;23;20029;-61
2023/05/19 14:20:34;;;;;;;6.10;3.85;;;;;;;;;;6208757;23;20470;-61
2023/05/19 14:23:01;;;;;;;8.68;3.75;;;;;;;;;;6208678;23;20023;-61
2023/05/19 14:25:29;;;;;;;7.07;4.13;;;;;;;;;;6207846;23;20131;-62
2023/05/19 14:28:02;;;;;;;5.80;3.28;;;;;;;;;;6209364;23;20074;-61
2023/05/19 14:30:29;;;;;;;6.75;3.78;;;;;;;;;;6204531;23;20025;-62
2023/05/19 14:33:03;;;;;;;6.60;3.60;;;;;;;;;;6208699;23;20347;-55
2023/05/19 14:35:30;;;;;;;6.20;3.55;;;;;;;;;;6208394;23;20127;-54
2023/05/19 14:37:57;;;;;;;8.65;3.63;;;;;;;;;;6208086;23;20470;-53
2023/05/19 14:40:31;;;;;;;7.50;4.03;;;;;;;;;;6208231;23;20028;-53
2023/05/19 14:42:59;;;;;;;7.18;3.67;;;;;;;;;;6208699;23;20024;-54
2023/05/19 14:45:26;;;;;;;11.25;4.00;;;;;;;;;;6208585;23;20585;-53
2023/05/19 14:48:00;;;;;;;7.28;3.63;;;;;;;;;;6208560;23;20021;-54
2023/05/19 14:50:28;;;;;;;22.60;3.50;;;;;;;;;;6208791;23;20031;-54
2023/05/19 14:52:55;;;;;;;;;;;;;;;;;;6206110;23;20114;-54
2023/05/19 14:55:29;;;;;;;8.63;3.80;;;;;;;;;;6208359;23;20326;-47
2023/05/19 14:57:56;;;;;;;6.65;3.53;;;;;;;;;;6205378;23;20477;-51
2023/05/19 15:00:42;;;;;;;9.45;3.58;;;;;;;;;;6208185;23;20108;-53
2023/05/19 15:03:10;;;;;;;5.82;3.50;;;;;;;;;;6208085;23;20025;-55
2023/05/19 15:05:44;;;;;;;14.05;3.78;;;;;;;;;;6208036;23;20024;-54
2023/05/19 15:08:12;;;;;;;7.55;3.63;;;;;;;;;;6207401;23;20344;-52
2023/05/19 15:10:39;;;;;;;8.27;4.05;;;;;;;;;;6206789;23;20398;-50